Time;durP1;ratioP1;P1;durP2;ratioP2;P2;SDS_P1;SDS_P2;PMS_P1;PMS_P2;Temp;Humidity;BMP_temperature;BMP_pressure;BME280_temperature;BME280_humidity;BME280_pressure;Samples;Min_cycle;Max_cycle;Signal;HPM_P1;HPM_P2
2023/01/20 00:01:54;;;;;;;;;;;21.90;99.90;;;;;;5073775;28;19919;-67
2023/01/20 00:04:20;;;;;;;;;;;22.00;99.90;;;;;;5073760;28;19934;-66
2023/01/20 00:06:47;;;;;;;;;;;22.10;99.90;;;;;;5073657;28;19916;-67
2023/01/20 00:09:15;;;;;;;;;;;22.10;99.90;;;;;;5073669;28;20230;-67
2023/01/20 00:11:43;;;;;;;;;;;22.10;99.90;;;;;;5073403;28;19909;-67
2023/01/20 00:14:10;;;;;;;;;;;22.20;99.90;;;;;;5073249;28;19957;-66
2023/01/20 00:16:37;;;;;;;;;;;22.40;99.90;;;;;;5073112;28;19908;-67
2023/01/20 00:19:03;;;;;;;;;;;22.60;99.90;;;;;;5072787;28;19935;-68
2023/01/20 00:21:30;;;;;;;;;;;22.50;99.90;;;;;;5073337;28;19962;-67
2023/01/20 00:23:57;;;;;;;;;;;22.60;99.90;;;;;;5073282;28;20352;-66
2023/01/20 00:26:24;;;;;;;;;;;22.60;99.90;;;;;;5073305;28;19961;-67
2023/01/20 00:28:53;;;;;;;;;;;22.70;99.90;;;;;;5072969;28;19909;-67
2023/01/20 00:31:20;;;;;;;;;;;22.60;99.90;;;;;;5073062;28;20323;-66
2023/01/20 00:33:48;;;;;;;;;;;22.60;99.90;;;;;;5073198;28;20289;-66
2023/01/20 00:36:15;;;;;;;;;;;22.60;99.90;;;;;;5073065;28;19909;-67
2023/01/20 00:38:42;;;;;;;;;;;22.80;99.90;;;;;;5072816;28;19931;-68
2023/01/20 00:41:08;;;;;;;;;;;23.00;99.90;;;;;;5072356;28;20381;-68
2023/01/20 00:43:36;;;;;;;;;;;23.30;99.90;;;;;;5073146;28;20270;-67
2023/01/20 00:46:03;;;;;;;;;;;23.60;99.90;;;;;;5072999;28;19908;-66
2023/01/20 00:48:29;;;;;;;;;;;23.60;99.90;;;;;;5072295;28;20007;-67
2023/01/20 00:50:56;;;;;;;;;;;23.80;99.90;;;;;;5072779;28;20357;-67
2023/01/20 00:53:23;;;;;;;;;;;23.90;99.90;;;;;;5072518;28;19975;-67
2023/01/20 00:55:49;;;;;;;;;;;24.00;99.90;;;;;;5072708;28;19939;-66
2023/01/20 00:58:16;;;;;;;;;;;24.10;99.50;;;;;;5072338;28;19922;-67
2023/01/20 01:00:43;;;;;;;;;;;24.10;99.00;;;;;;5072639;28;19951;-66
2023/01/20 01:03:09;;;;;;;;;;;24.10;99.40;;;;;;5072457;28;19904;-66
2023/01/20 01:05:36;;;;;;;;;;;24.00;99.50;;;;;;5079636;28;20023;-66
2023/01/20 01:08:03;;;;;;;;;;;23.90;99.40;;;;;;5112434;28;19939;-67
2023/01/20 01:10:30;;;;;;;;;;;23.80;99.00;;;;;;5113196;28;19917;-68
2023/01/20 01:13:00;;;;;;;;;;;23.50;99.90;;;;;;5113000;28;19908;-68
2023/01/20 01:15:27;;;;;;;;;;;23.00;99.90;;;;;;5112156;28;20360;-68
2023/01/20 01:17:55;;;;;;;;;;;22.70;99.90;;;;;;5111467;28;20002;-68
2023/01/20 01:20:21;;;;;;;;;;;22.30;99.90;;;;;;5112813;28;19911;-67
2023/01/20 01:22:48;;;;;;;;;;;22.00;99.90;;;;;;5113050;28;19989;-69
2023/01/20 01:25:15;;;;;;;;;;;21.70;99.90;;;;;;5111498;28;19935;-67
2023/01/20 01:27:41;;;;;;;;;;;21.70;99.90;;;;;;5112922;28;20002;-68
2023/01/20 01:30:08;;;;;;;;;;;21.70;99.90;;;;;;5113096;28;20002;-69
2023/01/20 01:32:35;;;;;;;;;;;21.50;99.90;;;;;;5112908;28;19930;-69
2023/01/20 01:35:01;;;;;;;;;;;21.60;99.90;;;;;;5113169;28;20423;-68
2023/01/20 01:37:28;;;;;;;;;;;21.80;99.90;;;;;;5113234;28;19944;-67
2023/01/20 01:39:55;;;;;;;;;;;21.80;99.90;;;;;;5112717;28;20382;-67
2023/01/20 01:42:25;;;;;;;;;;;21.90;99.90;;;;;;5112883;28;19908;-67
2023/01/20 01:45:10;;;;;;;;;;;22.00;99.90;;;;;;5112594;28;19908;-67
2023/01/20 01:47:48;;;;;;;;;;;22.20;99.90;;;;;;5112157;28;19908;-66
2023/01/20 01:50:22;;;;;;;;;;;22.30;99.90;;;;;;5112403;28;19908;-67
2023/01/20 01:52:52;;;;;;;;;;;22.30;99.90;;;;;;5112669;28;19914;-66
2023/01/20 01:55:19;;;;;;;;;;;22.20;99.90;;;;;;5116786;28;19943;-67
2023/01/20 01:57:47;;;;;;;;;;;22.20;99.90;;;;;;5116466;28;19998;-66
2023/01/20 02:00:13;;;;;;;;;;;22.10;99.90;;;;;;5116876;28;19939;-66
2023/01/20 02:02:42;;;;;;;;;;;22.20;99.90;;;;;;5116720;28;19908;-67
2023/01/20 02:05:09;;;;;;;;;;;22.10;99.90;;;;;;5117832;28;20317;-66
2023/01/20 02:07:36;;;;;;;;;;;22.20;99.90;;;;;;5117738;28;19918;-66
2023/01/20 02:10:03;;;;;;;;;;;22.30;99.90;;;;;;5116567;28;19908;-67
2023/01/20 02:12:30;;;;;;;;;;;22.40;99.90;;;;;;5116662;28;19912;-67
2023/01/20 02:14:58;;;;;;;;;;;22.50;99.90;;;;;;5116334;28;20309;-68
2023/01/20 02:17:30;;;;;;;;;;;22.50;99.90;;;;;;5116816;28;20353;-67
2023/01/20 02:19:57;;;;;;;;;;;22.60;99.90;;;;;;5116989;28;19916;-66
2023/01/20 02:22:23;;;;;;;;;;;22.70;99.90;;;;;;5117066;28;20379;-66
2023/01/20 02:25:08;;;;;;;;;;;22.70;99.90;;;;;;5116142;28;19907;-66
2023/01/20 02:27:40;;;;;;;;;;;22.90;99.90;;;;;;5116025;28;20380;-66
2023/01/20 02:30:25;;;;;;;;;;;23.00;99.90;;;;;;5116561;28;20288;-67
2023/01/20 02:32:58;;;;;;;;;;;23.00;98.80;;;;;;5116377;28;20052;-67
2023/01/20 02:35:30;;;;;;;;;;;23.00;99.10;;;;;;5116682;28;19916;-67
2023/01/20 02:38:15;;;;;;;;;;;22.90;99.00;;;;;;5115987;28;19916;-67
2023/01/20 02:40:41;;;;;;;;;;;22.80;98.50;;;;;;5114045;28;19965;-67
2023/01/20 02:43:18;;;;;;;;;;;22.90;97.70;;;;;;5115821;28;19919;-69
2023/01/20 02:45:44;;;;;;;;;;;22.90;97.50;;;;;;5115811;28;19907;-67
2023/01/20 02:48:14;;;;;;;;;;;22.90;97.40;;;;;;5115621;28;20291;-68
2023/01/20 02:51:00;;;;;;;;;;;23.00;97.00;;;;;;5115515;28;19915;-68
2023/01/20 02:53:30;;;;;;;;;;;23.00;97.10;;;;;;5103622;28;19915;-66
2023/01/20 02:55:57;;;;;;;;;;;23.00;96.70;;;;;;5115414;28;19939;-66
2023/01/20 02:58:42;;;;;;;;;;;23.30;97.20;;;;;;5115272;28;19922;-68
2023/01/20 03:01:27;;;;;;;;;;;23.70;96.00;;;;;;5115605;28;19960;-66
2023/01/20 03:03:57;;;;;;;;;;;24.00;96.20;;;;;;5115525;28;19912;-66
2023/01/20 03:06:26;;;;;;;;;;;24.20;94.90;;;;;;5115169;28;20234;-67
2023/01/20 03:08:54;;;;;;;;;;;24.60;93.90;;;;;;5115216;28;19907;-68
2023/01/20 03:11:21;;;;;;;;;;;25.00;94.00;;;;;;5114909;28;20839;-67
2023/01/20 03:13:51;;;;;;;;;;;25.40;92.20;;;;;;5115002;28;19997;-66
2023/01/20 03:16:19;;;;;;;;;;;25.60;92.20;;;;;;5114942;28;19908;-68
2023/01/20 03:18:46;;;;;;;;;;;25.70;91.90;;;;;;5115399;28;19916;-67
2023/01/20 03:21:13;;;;;;;;;;;25.70;91.80;;;;;;5115345;28;19911;-67
2023/01/20 03:23:41;;;;;;;;;;;25.50;92.10;;;;;;5115157;28;20368;-66
2023/01/20 03:26:09;;;;;;;;;;;25.30;92.50;;;;;;5114774;28;20014;-67
2023/01/20 03:28:36;;;;;;;;;;;25.00;92.90;;;;;;5114988;28;19908;-66
2023/01/20 03:31:12;;;;;;;;;;;24.70;93.20;;;;;;5114876;28;19919;-69
2023/01/20 03:33:39;;;;;;;;;;;24.40;93.90;;;;;;5114566;28;19915;-66
2023/01/20 03:36:05;;;;;;;;;;;24.00;94.60;;;;;;5114852;28;19915;-66
2023/01/20 03:38:32;;;;;;;;;;;23.40;95.50;;;;;;5115082;28;19915;-67
2023/01/20 03:41:18;;;;;;;;;;;23.10;96.20;;;;;;5114938;28;20290;-67
2023/01/20 03:44:05;;;;;;;;;;;22.90;97.20;;;;;;5114172;28;19908;-66
2023/01/20 03:46:39;;;;;;;;;;;22.70;97.90;;;;;;5113982;28;20271;-68
2023/01/20 03:49:14;;;;;;;;;;;22.70;97.80;;;;;;5114164;28;19912;-67
2023/01/20 03:51:54;;;;;;;;;;;22.60;97.60;;;;;;5114506;28;19984;-69
2023/01/20 03:54:25;;;;;;;;;;;22.60;98.10;;;;;;5114629;28;19908;-66
2023/01/20 03:56:52;;;;;;;;;;;22.60;98.00;;;;;;5114399;28;19908;-67
2023/01/20 03:59:19;;;;;;;;;;;22.70;98.30;;;;;;5113874;28;20006;-66
2023/01/20 04:01:46;;;;;;;;;;;22.80;98.10;;;;;;5114102;28;19912;-67
2023/01/20 04:04:15;;;;;;;;;;;23.00;97.90;;;;;;5114263;28;19907;-67
2023/01/20 04:06:44;;;;;;;;;;;23.10;97.50;;;;;;5114341;28;19908;-67
2023/01/20 04:09:13;;;;;;;;;;;23.10;97.30;;;;;;5114311;28;19908;-68
2023/01/20 04:11:39;;;;;;;;;;;23.30;97.60;;;;;;5113807;28;19908;-67
2023/01/20 04:14:08;;;;;;;;;;;23.50;96.80;;;;;;5113843;28;19912;-69
2023/01/20 04:16:35;;;;;;;;;;;23.70;96.40;;;;;;5113380;28;19962;-66
2023/01/20 04:19:02;;;;;;;;;;;23.60;96.60;;;;;;5112635;28;19923;-66
2023/01/20 04:21:28;;;;;;;;;;;23.50;96.80;;;;;;5113768;28;19923;-66
2023/01/20 04:23:55;;;;;;;;;;;23.30;98.10;;;;;;5113620;28;19908;-67
2023/01/20 04:26:22;;;;;;;;;;;23.30;98.10;;;;;;5113660;28;20288;-67
2023/01/20 04:28:48;;;;;;;;;;;23.20;97.50;;;;;;5099808;28;20377;-68
2023/01/20 04:31:15;;;;;;;;;;;23.20;97.60;;;;;;5092713;28;19995;-66
2023/01/20 04:33:41;;;;;;;;;;;23.10;97.60;;;;;;5092835;28;20017;-68
2023/01/20 04:36:08;;;;;;;;;;;23.00;97.20;;;;;;5092725;28;19954;-66
2023/01/20 04:38:35;;;;;;;;;;;22.90;96.90;;;;;;5080397;28;19948;-65
2023/01/20 04:41:01;;;;;;;;;;;22.80;97.20;;;;;;5072771;28;19916;-67
2023/01/20 04:43:28;;;;;;;;;;;22.90;97.30;;;;;;5085025;28;20260;-64
2023/01/20 04:45:55;;;;;;;;;;;23.00;97.30;;;;;;5093018;28;19915;-67
2023/01/20 04:48:21;;;;;;;;;;;23.20;97.30;;;;;;5092026;28;19912;-67
2023/01/20 04:50:48;;;;;;;;;;;23.30;96.70;;;;;;5079496;28;20754;-66
2023/01/20 04:53:17;;;;;;;;;;;23.40;96.50;;;;;;5085156;28;19919;-67
2023/01/20 04:55:45;;;;;;;;;;;23.50;96.10;;;;;;5086747;28;20018;-65
2023/01/20 04:58:11;;;;;;;;;;;23.50;95.30;;;;;;5091988;28;20328;-67
2023/01/20 05:00:38;;;;;;;;;;;23.60;95.70;;;;;;5091167;28;19908;-66
2023/01/20 05:03:04;;;;;;;;;;;23.80;95.70;;;;;;5084160;28;19979;-66
2023/01/20 05:05:31;;;;;;;;;;;23.80;96.00;;;;;;5078898;28;19919;-66
2023/01/20 05:07:58;;;;;;;;;;;23.80;95.80;;;;;;5091539;28;19919;-66
2023/01/20 05:10:25;;;;;;;;;;;23.70;96.00;;;;;;5087811;28;19908;-67
2023/01/20 05:12:51;;;;;;;;;;;23.60;95.50;;;;;;5090800;28;19916;-67
2023/01/20 05:15:18;;;;;;;;;;;23.70;95.60;;;;;;5091909;28;19915;-67
2023/01/20 05:17:44;;;;;;;;;;;24.00;95.50;;;;;;5091810;28;19920;-66
2023/01/20 05:20:11;;;;;;;;;;;24.30;94.30;;;;;;5088592;28;19920;-67
2023/01/20 05:22:38;;;;;;;;;;;24.50;93.60;;;;;;5090108;28;19916;-67
2023/01/20 05:25:05;;;;;;;;;;;24.50;93.70;;;;;;5074244;28;20293;-67
2023/01/20 05:27:34;;;;;;;;;;;24.40;92.90;;;;;;5083099;28;19920;-67
2023/01/20 05:30:01;;;;;;;;;;;24.20;93.10;;;;;;5094783;28;19919;-63
2023/01/20 05:32:27;;;;;;;;;;;24.00;93.20;;;;;;5094230;28;19987;-66
2023/01/20 05:34:54;;;;;;;;;;;23.90;93.50;;;;;;5088244;28;20369;-66
2023/01/20 05:37:20;;;;;;;;;;;23.80;93.80;;;;;;5075164;28;19927;-66
2023/01/20 05:39:47;;;;;;;;;;;23.70;93.30;;;;;;5089298;28;19928;-65
2023/01/20 05:42:14;;;;;;;;;;;23.50;93.30;;;;;;5078415;28;20273;-67
2023/01/20 05:44:41;;;;;;;;;;;23.40;93.10;;;;;;5096245;28;19950;-64
2023/01/20 05:47:07;;;;;;;;;;;23.10;93.00;;;;;;5092863;28;19908;-64
2023/01/20 05:49:34;;;;;;;;;;;23.00;93.40;;;;;;5096003;28;19912;-64
2023/01/20 05:52:01;;;;;;;;;;;22.80;93.30;;;;;;5095088;28;19912;-66
2023/01/20 05:54:27;;;;;;;;;;;22.70;93.40;;;;;;5075351;28;19916;-66
2023/01/20 05:56:54;;;;;;;;;;;22.70;94.20;;;;;;5084708;28;19948;-64
2023/01/20 05:59:22;;;;;;;;;;;22.70;94.10;;;;;;5095346;28;20265;-67
2023/01/20 06:01:48;;;;;;;;;;;22.70;94.20;;;;;;5093957;28;20050;-66
2023/01/20 06:04:15;;;;;;;;;;;22.60;93.90;;;;;;5093551;28;19951;-65
2023/01/20 06:06:42;;;;;;;;;;;22.50;94.10;;;;;;5094784;28;20291;-66
2023/01/20 06:09:09;;;;;;;;;;;22.50;95.30;;;;;;5095259;28;20613;-65
2023/01/20 06:11:36;;;;;;;;;;;22.50;95.80;;;;;;5094665;28;19912;-67
2023/01/20 06:14:03;;;;;;;;;;;22.40;96.40;;;;;;5076088;28;19964;-67
2023/01/20 06:16:29;;;;;;;;;;;22.40;97.20;;;;;;5074896;28;20014;-66
2023/01/20 06:18:56;;;;;;;;;;;22.50;97.90;;;;;;5082761;28;19920;-66
2023/01/20 06:21:23;;;;;;;;;;;22.50;98.40;;;;;;5091902;28;20054;-67
2023/01/20 06:23:50;;;;;;;;;;;22.50;98.90;;;;;;5089677;28;20370;-65
2023/01/20 06:26:17;;;;;;;;;;;22.40;99.30;;;;;;5093811;28;19931;-67
2023/01/20 06:28:43;;;;;;;;;;;22.40;99.30;;;;;;5094261;28;20361;-67
2023/01/20 06:31:16;;;;;;;;;;;22.40;99.60;;;;;;5091725;28;20364;-67
2023/01/20 06:33:43;;;;;;;;;;;22.40;99.50;;;;;;5094051;28;19920;-66
2023/01/20 06:36:12;;;;;;;;;;;22.50;99.20;;;;;;5091692;28;19912;-67
2023/01/20 06:38:39;;;;;;;;;;;22.50;99.10;;;;;;5094708;28;20296;-65
2023/01/20 06:41:06;;;;;;;;;;;22.50;97.90;;;;;;5092524;28;19954;-66
2023/01/20 06:43:34;;;;;;;;;;;22.50;97.90;;;;;;5094827;28;19981;-66
2023/01/20 06:46:01;;;;;;;;;;;22.50;97.80;;;;;;5092554;28;20288;-66
2023/01/20 06:48:28;;;;;;;;;;;22.40;97.50;;;;;;5095254;28;19908;-67
2023/01/20 06:51:05;;;;;;;;;;;22.40;97.10;;;;;;5094591;28;20327;-67
2023/01/20 06:53:32;;;;;;;;;;;22.30;96.90;;;;;;5091371;28;19912;-67
2023/01/20 06:55:59;;;;;;;;;;;22.20;97.40;;;;;;5093300;28;19927;-68
2023/01/20 06:58:27;;;;;;;;;;;22.10;97.70;;;;;;5100220;28;19924;-66
2023/01/20 07:00:54;;;;;;;;;;;22.20;97.80;;;;;;5104712;28;20355;-68
2023/01/20 07:03:21;;;;;;;;;;;22.10;98.00;;;;;;5103620;28;20421;-66
2023/01/20 07:05:53;;;;;;;;;;;22.00;98.20;;;;;;5103441;28;20002;-66
2023/01/20 07:08:20;;;;;;;;;;;22.00;98.00;;;;;;5100007;28;19973;-66
2023/01/20 07:10:46;;;;;;;;;;;21.90;98.10;;;;;;5102729;28;19923;-68
2023/01/20 07:13:13;;;;;;;;;;;22.00;98.30;;;;;;5085909;28;19912;-65
2023/01/20 07:15:40;;;;;;;;;;;21.90;98.20;;;;;;5082588;28;19912;-66
2023/01/20 07:18:06;;;;;;;;;;;21.80;98.60;;;;;;5089171;28;19920;-66
2023/01/20 07:20:33;;;;;;;;;;;21.70;98.60;;;;;;5101133;28;20268;-66
2023/01/20 07:23:00;;;;;;;;;;;21.70;98.60;;;;;;5093734;28;19909;-67
2023/01/20 07:25:26;;;;;;;;;;;21.70;98.60;;;;;;5093737;28;19916;-65
2023/01/20 07:27:53;;;;;;;;;;;21.70;98.80;;;;;;5074108;28;19973;-64
2023/01/20 07:30:20;;;;;;;;;;;21.60;98.70;;;;;;5072840;28;19908;-65
2023/01/20 07:32:46;;;;;;;;;;;21.70;98.80;;;;;;5091977;28;20295;-67
2023/01/20 07:35:13;;;;;;;;;;;21.70;99.30;;;;;;5094292;28;19920;-67
2023/01/20 07:37:40;;;;;;;;;;;21.60;99.80;;;;;;5090605;28;19916;-67
2023/01/20 07:40:07;;;;;;;;;;;21.60;99.90;;;;;;5080575;28;19916;-66
2023/01/20 07:42:36;;;;;;;;;;;21.70;99.90;;;;;;5096036;28;19935;-64
2023/01/20 07:45:03;;;;;;;;;;;21.70;99.90;;;;;;5102592;28;19912;-65
2023/01/20 07:47:29;;;;;;;;;;;21.70;99.90;;;;;;5098096;28;19931;-63
2023/01/20 07:49:56;;;;;;;;;;;21.70;99.90;;;;;;5094055;28;20174;-64
2023/01/20 07:52:23;;;;;;;;;;;21.70;99.90;;;;;;5088788;28;19999;-63
2023/01/20 07:54:49;;;;;;;;;;;21.70;99.90;;;;;;5092820;28;20427;-63
2023/01/20 07:57:16;;;;;;;;;;;21.70;99.90;;;;;;5093388;28;19918;-63
2023/01/20 07:59:42;;;;;;;;;;;21.70;99.90;;;;;;5093742;28;20369;-63
2023/01/20 08:02:09;;;;;;;;;;;21.70;99.90;;;;;;5080366;28;19916;-64
2023/01/20 08:04:36;;;;;;;;;;;21.70;99.90;;;;;;5073299;28;19915;-65
2023/01/20 08:07:02;;;;;;;;;;;21.60;99.90;;;;;;5073072;28;19905;-67
2023/01/20 08:09:29;;;;;;;;;;;21.60;99.90;;;;;;5074482;28;19988;-64
2023/01/20 08:11:56;;;;;;;;;;;21.60;99.90;;;;;;5083722;28;19938;-65
2023/01/20 08:14:22;;;;;;;;;;;21.60;99.90;;;;;;5086140;28;19917;-67
2023/01/20 08:16:49;;;;;;;;;;;21.50;99.90;;;;;;5073643;28;20328;-65
2023/01/20 08:19:15;;;;;;;;;;;21.60;99.90;;;;;;5073738;28;19917;-66
2023/01/20 08:21:42;;;;;;;;;;;21.60;99.90;;;;;;5080781;28;19912;-65
2023/01/20 08:24:09;;;;;;;;;;;21.60;99.90;;;;;;5092271;28;19933;-65
2023/01/20 08:26:36;;;;;;;;;;;21.50;99.90;;;;;;5073605;28;20012;-66
2023/01/20 08:29:04;;;;;;;;;;;21.50;99.90;;;;;;5089060;28;20007;-67
2023/01/20 08:31:31;;;;;;;;;;;21.50;99.90;;;;;;5079266;28;19912;-66
2023/01/20 08:33:58;;;;;;;;;;;21.40;99.60;;;;;;5093152;28;19920;-67
2023/01/20 08:36:27;;;;;;;;;;;21.40;99.50;;;;;;5093314;28;19983;-69
2023/01/20 08:38:58;;;;;;;;;;;21.20;99.60;;;;;;5092270;28;20118;-67
2023/01/20 08:41:27;;;;;;;;;;;21.20;99.70;;;;;;5094107;28;19912;-66
2023/01/20 08:43:54;;;;;;;;;;;21.20;99.90;;;;;;5098796;28;20308;-66
2023/01/20 08:46:21;;;;;;;;;;;21.20;99.90;;;;;;5101902;28;20317;-68
2023/01/20 08:48:49;;;;;;;;;;;21.20;99.90;;;;;;5094409;28;20090;-67
2023/01/20 08:51:20;;;;;;;;;;;21.10;99.90;;;;;;5090925;28;20323;-66
2023/01/20 08:53:47;;;;;;;;;;;21.10;99.90;;;;;;5093128;28;19911;-66
2023/01/20 08:56:14;;;;;;;;;;;21.00;99.90;;;;;;5092578;28;19908;-66
2023/01/20 08:58:41;;;;;;;;;;;21.00;99.90;;;;;;5092730;28;19920;-67
2023/01/20 09:01:11;;;;;;;;;;;21.00;99.90;;;;;;5085958;28;19995;-65
2023/01/20 09:03:38;;;;;;;;;;;20.90;99.90;;;;;;5072553;28;19951;-66
2023/01/20 09:06:06;;;;;;;;;;;20.90;99.90;;;;;;5073423;28;20429;-64
2023/01/20 09:08:32;;;;;;;;;;;20.90;99.90;;;;;;5087203;28;19912;-65
2023/01/20 09:11:09;;;;;;;;;;;20.80;99.90;;;;;;5091818;28;19912;-66
2023/01/20 09:13:36;;;;;;;;;;;20.80;99.90;;;;;;5082101;28;19913;-67
2023/01/20 09:16:03;;;;;;;;;;;20.80;99.90;;;;;;5076200;28;19912;-67
2023/01/20 09:18:34;;;;;;;;;;;20.80;99.90;;;;;;5082873;28;19928;-65
2023/01/20 09:21:05;;;;;;;;;;;20.80;99.90;;;;;;5092865;28;19982;-65
2023/01/20 09:23:32;;;;;;;;;;;20.70;99.90;;;;;;5092636;28;19908;-65
2023/01/20 09:26:00;;;;;;;;;;;20.70;99.90;;;;;;5092470;28;19912;-63
2023/01/20 09:28:26;;;;;;;;;;;20.70;99.90;;;;;;5076074;28;19924;-67
2023/01/20 09:31:00;;;;;;;;;;;20.70;99.90;;;;;;5072338;28;19931;-68
2023/01/20 09:33:27;;;;;;;;;;;20.70;99.90;;;;;;5072050;28;19917;-67
2023/01/20 09:35:54;;;;;;;;;;;20.70;99.90;;;;;;5090460;28;20311;-67
2023/01/20 09:43:58;;;;;;;;;;;20.80;99.90;;;;;;5093651;28;20644;-67
2023/01/20 09:46:27;;;;;;;;;;;20.70;99.90;;;;;;5084573;28;19935;-66
2023/01/20 09:55:03;;;;;;;;;;;20.80;99.90;;;;;;5086558;28;20323;-64
2023/01/20 09:57:36;;;;;;;;;;;20.70;99.90;;;;;;5092070;28;19969;-67
2023/01/20 10:00:12;;;;;;;;;;;20.70;99.90;;;;;;5091013;28;20273;-65
2023/01/20 10:02:40;;;;;;;;;;;20.80;99.90;;;;;;5088843;28;20288;-65
2023/01/20 10:05:11;;;;;;;;;;;20.70;99.90;;;;;;5072150;28;19912;-67
2023/01/20 10:07:40;;;;;;;;;;;20.70;99.90;;;;;;5072294;28;20419;-66
2023/01/20 10:10:16;;;;;;;;;;;20.70;99.90;;;;;;5072879;28;19919;-67
2023/01/20 10:12:53;;;;;;;;;;;20.70;99.90;;;;;;5098873;28;19973;-65
2023/01/20 10:15:25;;;;;;;;;;;20.70;99.90;;;;;;5094076;28;19909;-66
2023/01/20 10:17:58;;;;;;;;;;;20.60;99.90;;;;;;5095916;28;19960;-67
2023/01/20 10:20:25;;;;;;;;;;;20.70;99.90;;;;;;5096289;28;19915;-64
2023/01/20 10:22:53;;;;;;;;;;;20.70;99.90;;;;;;5095088;28;20391;-65
2023/01/20 10:25:28;;;;;;;;;;;20.60;99.90;;;;;;5095871;28;19908;-64
2023/01/20 10:27:56;;;;;;;;;;;20.60;99.90;;;;;;5095756;28;19908;-65
2023/01/20 10:30:29;;;;;;;;;;;20.60;99.90;;;;;;5096095;28;19916;-66
2023/01/20 10:33:02;;;;;;;;;;;20.60;99.90;;;;;;5091237;28;20365;-65
2023/01/20 10:35:31;;;;;;;;;;;20.40;99.90;;;;;;5078503;28;19920;-67
2023/01/20 10:37:57;;;;;;;;;;;20.30;99.90;;;;;;5093559;28;19927;-63
2023/01/20 10:40:28;;;;;;;;;;;20.30;99.90;;;;;;5095342;28;19908;-63
2023/01/20 10:42:57;;;;;;;;;;;20.20;99.90;;;;;;5095393;28;19953;-63
2023/01/20 10:45:39;;;;;;;;;;;19.90;99.90;;;;;;5080103;28;19913;-64
2023/01/20 10:48:28;;;;;;;;;;;19.80;99.90;;;;;;5075181;28;19909;-65
2023/01/20 10:51:12;;;;;;;;;;;19.80;99.90;;;;;;5074834;28;19908;-65
2023/01/20 10:54:14;;;;;;;;;;;19.80;99.90;;;;;;5089276;28;19947;-65
2023/01/20 10:56:54;;;;;;;;;;;19.80;99.90;;;;;;5032310;28;19921;-67
2023/01/20 10:59:36;;;;;;;;;;;19.90;99.90;;;;;;5070059;28;19943;-64
2023/01/20 11:02:15;;;;;;;;;;;19.90;99.90;;;;;;5080435;28;20288;-64
2023/01/20 11:04:41;;;;;;;;;;;19.90;99.90;;;;;;5097640;28;20014;-65
2023/01/20 11:07:12;;;;;;;;;;;19.90;99.90;;;;;;5102979;28;19919;-64
2023/01/20 11:09:40;;;;;;;;;;;19.90;99.90;;;;;;5100710;28;19916;-66
2023/01/20 11:12:17;;;;;;;;;;;19.90;99.90;;;;;;5104313;28;19912;-67
2023/01/20 11:14:45;;;;;;;;;;;19.90;99.90;;;;;;5103213;28;19912;-64
2023/01/20 11:17:16;;;;;;;;;;;19.90;99.90;;;;;;5103067;28;19991;-65
2023/01/20 11:19:52;;;;;;;;;;;19.90;99.90;;;;;;5101483;28;19908;-65
2023/01/20 11:22:22;;;;;;;;;;;19.90;99.90;;;;;;5094593;28;19968;-65
2023/01/20 11:24:52;;;;;;;;;;;19.90;99.90;;;;;;5093413;28;19919;-64
2023/01/20 11:27:20;;;;;;;;;;;19.90;99.90;;;;;;5087075;28;20368;-63
2023/01/20 11:29:58;;;;;;;;;;;19.90;99.90;;;;;;5094483;28;19916;-65
2023/01/20 11:32:30;;;;;;;;;;;19.90;99.90;;;;;;5085178;28;20481;-64
2023/01/20 11:34:57;;;;;;;;;;;19.70;99.90;;;;;;5086025;28;20437;-65
2023/01/20 11:37:42;;;;;;;;;;;19.70;99.90;;;;;;5094383;28;19916;-77
2023/01/20 11:40:22;;;;;;;;;;;19.60;99.90;;;;;;5094463;28;19908;-82
2023/01/20 11:42:49;;;;;;;;;;;19.60;99.90;;;;;;5090923;28;19916;-74
2023/01/20 11:45:25;;;;;;;;;;;19.60;99.90;;;;;;5077431;28;19912;-78
2023/01/20 11:48:00;;;;;;;;;;;19.50;99.90;;;;;;5092726;28;19912;-76
2023/01/20 11:50:48;;;;;;;;;;;19.50;99.90;;;;;;5092548;28;19942;-78
2023/01/20 11:53:17;;;;;;;;;;;19.50;99.90;;;;;;5089706;28;19908;-75
2023/01/20 11:55:46;;;;;;;;;;;19.50;99.90;;;;;;5074373;28;19913;-74
2023/01/20 11:58:16;;;;;;;;;;;19.50;99.90;;;;;;5083786;28;19943;-74
2023/01/20 12:00:43;;;;;;;;;;;19.40;99.90;;;;;;5085018;28;20028;-75
2023/01/20 12:03:10;;;;;;;;;;;19.40;99.90;;;;;;5093241;28;19966;-75
2023/01/20 12:05:43;;;;;;;;;;;19.30;99.90;;;;;;5089930;28;20361;-73
2023/01/20 12:08:12;;;;;;;;;;;19.40;99.90;;;;;;5090706;28;19912;-71
2023/01/20 12:10:39;;;;;;;;;;;19.30;99.90;;;;;;5093864;28;19912;-72
2023/01/20 12:13:05;;;;;;;;;;;19.30;99.90;;;;;;5093944;28;19914;-73
2023/01/20 12:15:34;;;;;;;;;;;19.30;99.90;;;;;;5091735;28;20425;-73
2023/01/20 12:18:20;;;;;;;;;;;19.20;99.90;;;;;;5077610;28;20331;-74
2023/01/20 12:20:47;;;;;;;;;;;19.20;99.90;;;;;;5065854;28;19912;-71
2023/01/20 12:23:20;;;;;;;;;;;19.20;99.90;;;;;;5073470;28;20272;-71
2023/01/20 12:25:47;;;;;;;;;;;19.30;99.90;;;;;;5091424;28;19923;-72
2023/01/20 12:28:19;;;;;;;;;;;19.30;99.90;;;;;;5080847;28;19948;-70
2023/01/20 12:30:49;;;;;;;;;;;19.40;99.90;;;;;;5080616;28;19958;-70
2023/01/20 12:33:19;;;;;;;;;;;19.40;99.90;;;;;;5094518;28;19916;-70
2023/01/20 12:35:57;;;;;;;;;;;19.30;99.90;;;;;;5088771;28;19919;-71
2023/01/20 12:38:24;;;;;;;;;;;19.30;99.90;;;;;;5072385;28;19923;-70
2023/01/20 12:40:52;;;;;;;;;;;19.30;99.90;;;;;;5082206;28;19913;-74
2023/01/20 12:43:27;;;;;;;;;;;19.20;99.90;;;;;;5075826;28;19912;-72
2023/01/20 12:46:19;;;;;;;;;;;19.20;99.90;;;;;;5078640;28;20349;-75
2023/01/20 12:49:04;;;;;;;;;;;19.30;99.90;;;;;;5076983;28;19912;-72
2023/01/20 12:51:49;;;;;;;;;;;19.20;99.90;;;;;;5072670;28;20351;-76
2023/01/20 12:54:16;;;;;;;;;;;19.20;99.90;;;;;;5086454;28;20387;-73
2023/01/20 12:56:55;;;;;;;;;;;19.20;99.90;;;;;;5090803;28;19954;-71
2023/01/20 12:59:38;;;;;;;;;;;19.20;99.90;;;;;;5092076;28;19926;-70
2023/01/20 13:02:04;;;;;;;;;;;19.20;99.90;;;;;;5092923;28;19912;-71
2023/01/20 13:04:31;;;;;;;;;;;19.20;99.90;;;;;;5092986;28;19908;-74
2023/01/20 13:07:03;;;;;;;;;;;19.20;99.90;;;;;;5091407;28;19966;-75
2023/01/20 13:09:48;;;;;;;;;;;19.20;99.90;;;;;;5090052;28;20265;-70
2023/01/20 13:12:26;;;;;;;;;;;19.00;99.90;;;;;;5091736;28;19980;-70
2023/01/20 13:14:57;;;;;;;;;;;19.20;99.90;;;;;;5091021;28;19978;-69
2023/01/20 13:17:31;;;;;;;;;;;19.30;99.90;;;;;;5088528;28;19912;-71
2023/01/20 13:19:58;;;;;;;;;;;19.20;99.90;;;;;;5092217;28;19908;-70
2023/01/20 13:22:25;;;;;;;;;;;19.20;99.90;;;;;;5092401;28;20008;-69
2023/01/20 13:24:52;;;;;;;;;;;19.00;99.90;;;;;;5092432;28;19915;-72
2023/01/20 13:27:36;;;;;;;;;;;19.10;99.90;;;;;;5091981;28;19948;-69
2023/01/20 13:30:04;;;;;;;;;;;19.10;99.90;;;;;;5092903;28;19947;-70
2023/01/20 13:32:44;;;;;;;;;;;19.10;99.90;;;;;;5092629;28;19915;-73
2023/01/20 13:35:17;;;;;;;;;;;19.00;99.90;;;;;;5092159;28;19920;-73
2023/01/20 13:37:50;;;;;;;;;;;19.00;99.90;;;;;;5074062;28;19920;-81
2023/01/20 13:40:34;;;;;;;;;;;19.00;99.90;;;;;;5071983;28;19916;-79
2023/01/20 13:43:01;;;;;;;;;;;18.90;99.90;;;;;;5082394;28;19912;-70
2023/01/20 13:45:28;;;;;;;;;;;19.00;99.90;;;;;;5092009;28;19916;-72
2023/01/20 13:47:58;;;;;;;;;;;19.00;99.90;;;;;;5073130;28;19913;-76
2023/01/20 13:50:26;;;;;;;;;;;18.90;99.90;;;;;;5074152;28;19909;-72
2023/01/20 13:52:53;;;;;;;;;;;18.90;99.90;;;;;;5076423;28;20299;-74
2023/01/20 13:55:37;;;;;;;;;;;18.90;99.90;;;;;;5075877;28;19912;-71
2023/01/20 13:58:04;;;;;;;;;;;18.80;99.90;;;;;;5094330;28;20357;-69
2023/01/20 14:00:31;;;;;;;;;;;18.80;99.90;;;;;;5095074;28;19908;-69
2023/01/20 14:02:57;;;;;;;;;;;18.80;99.90;;;;;;5094683;28;20589;-69
2023/01/20 14:05:26;;;;;;;;;;;18.80;99.90;;;;;;5094623;28;20015;-76
2023/01/20 14:07:52;;;;;;;;;;;18.80;99.90;;;;;;5076628;28;19916;-71
2023/01/20 14:10:19;;;;;;;;;;;18.80;99.90;;;;;;5080145;28;19934;-78
2023/01/20 14:12:46;;;;;;;;;;;18.80;99.90;;;;;;5094915;28;20322;-69
2023/01/20 14:15:22;;;;;;;;;;;18.90;99.90;;;;;;5095120;28;19909;-70
2023/01/20 14:17:53;;;;;;;;;;;18.80;99.90;;;;;;5096388;28;19920;-72
2023/01/20 14:20:22;;;;;;;;;;;18.80;99.90;;;;;;5094799;28;19909;-71
2023/01/20 14:22:49;;;;;;;;;;;18.90;99.90;;;;;;5094904;28;19912;-73
2023/01/20 14:25:20;;;;;;;;;;;18.80;99.90;;;;;;5094987;28;19915;-71
2023/01/20 14:27:47;;;;;;;;;;;18.70;99.90;;;;;;5078078;28;20291;-71
2023/01/20 14:30:18;;;;;;;;;;;18.80;99.90;;;;;;5075771;28;19908;-69
2023/01/20 14:32:44;;;;;;;;;;;18.70;99.90;;;;;;5076301;28;19912;-69
2023/01/20 14:35:21;;;;;;;;;;;18.70;99.90;;;;;;5075571;28;20030;-69
2023/01/20 14:37:49;;;;;;;;;;;18.70;99.90;;;;;;5075577;28;19916;-69
2023/01/20 14:40:26;;;;;;;;;;;18.70;99.90;;;;;;5075411;28;19961;-71
2023/01/20 14:42:59;;;;;;;;;;;18.70;99.90;;;;;;5092484;28;20364;-70